Time;durP1;ratioP1;P1;durP2;ratioP2;P2;SDS_P1;SDS_P2;PMS_P1;PMS_P2;Temp;Humidity;BMP_temperature;BMP_pressure;BME280_temperature;BME280_humidity;BME280_pressure;Samples;Min_cycle;Max_cycle;Signal;HPM_P1;HPM_P2
2022/07/24 00:00:38;;;;;;;7.57;7.03;;;;;;;;;;5031857;28;20526;-69
2022/07/24 00:03:05;;;;;;;7.27;6.77;;;;;;;;;;5030345;28;20427;-69
2022/07/24 00:05:32;;;;;;;6.03;5.77;;;;;;;;;;5031265;28;20812;-69
2022/07/24 00:07:58;;;;;;;6.77;6.37;;;;;;;;;;5031952;28;20434;-69
2022/07/24 00:10:24;;;;;;;6.73;6.40;;;;;;;;;;5030695;28;20446;-69
2022/07/24 00:12:50;;;;;;;9.00;8.03;;;;;;;;;;5031954;28;20431;-69
2022/07/24 00:15:16;;;;;;;20.83;11.37;;;;;;;;;;5032149;28;20416;-69
2022/07/24 00:17:42;;;;;;;21.13;12.73;;;;;;;;;;5031709;28;20435;-69
2022/07/24 00:20:09;;;;;;;17.47;11.90;;;;;;;;;;5031836;28;20416;-69
2022/07/24 00:22:35;;;;;;;15.07;10.67;;;;;;;;;;5031638;28;20418;-69
2022/07/24 00:25:01;;;;;;;11.57;9.70;;;;;;;;;;5047454;28;20454;-69
2022/07/24 00:27:27;;;;;;;7.47;6.97;;;;;;;;;;5032070;28;20821;-69
2022/07/24 00:29:53;;;;;;;7.87;7.17;;;;;;;;;;5031443;28;20478;-69
2022/07/24 00:32:19;;;;;;;7.27;6.60;;;;;;;;;;5029609;28;20474;-69
2022/07/24 00:34:45;;;;;;;7.37;6.83;;;;;;;;;;5031024;28;20423;-69
2022/07/24 00:37:11;;;;;;;7.20;6.77;;;;;;;;;;5031344;28;20786;-68
2022/07/24 00:39:36;;;;;;;7.83;6.10;;;;;;;;;;5030801;28;20471;-68
2022/07/24 00:42:02;;;;;;;6.90;6.40;;;;;;;;;;5031244;28;20191;-69
2022/07/24 00:44:28;;;;;;;6.80;6.40;;;;;;;;;;5031880;28;20439;-69
2022/07/24 00:46:54;;;;;;;7.00;6.50;;;;;;;;;;5031850;28;20919;-69
2022/07/24 00:49:21;;;;;;;7.60;6.90;;;;;;;;;;5028149;28;20558;-69
2022/07/24 00:51:48;;;;;;;8.13;7.53;;;;;;;;;;5030932;28;20419;-69
2022/07/24 00:54:15;;;;;;;17.43;8.27;;;;;;;;;;5030379;28;21053;-68
2022/07/24 00:56:41;;;;;;;8.10;7.30;;;;;;;;;;5031507;28;20419;-69
2022/07/24 00:59:07;;;;;;;10.10;7.30;;;;;;;;;;5031107;28;20432;-69
2022/07/24 01:01:33;;;;;;;13.27;7.73;;;;;;;;;;5029752;28;20442;-69
2022/07/24 01:04:00;;;;;;;8.40;7.50;;;;;;;;;;5030103;28;20423;-69
2022/07/24 01:06:26;;;;;;;12.13;7.70;;;;;;;;;;5031222;28;20427;-68
2022/07/24 01:08:52;;;;;;;9.00;8.00;;;;;;;;;;5030758;28;20482;-69
2022/07/24 01:11:19;;;;;;;8.47;7.77;;;;;;;;;;5030554;28;20470;-69
2022/07/24 01:13:45;;;;;;;10.10;8.17;;;;;;;;;;5031231;28;20486;-69
2022/07/24 01:16:11;;;;;;;7.83;7.13;;;;;;;;;;5031171;28;20419;-68
2022/07/24 01:18:37;;;;;;;12.07;7.40;;;;;;;;;;5029291;28;21191;-69
2022/07/24 01:21:04;;;;;;;8.53;7.77;;;;;;;;;;5030852;28;20415;-68
2022/07/24 01:23:30;;;;;;;7.57;7.00;;;;;;;;;;5030571;28;20443;-69
2022/07/24 01:25:56;;;;;;;7.30;6.80;;;;;;;;;;5030108;28;20451;-69
2022/07/24 01:28:22;;;;;;;7.23;6.90;;;;;;;;;;5030855;28;20824;-69
2022/07/24 01:30:48;;;;;;;6.83;6.53;;;;;;;;;;5029368;28;20188;-68
2022/07/24 01:33:14;;;;;;;7.10;6.80;;;;;;;;;;5029980;28;20430;-68
2022/07/24 01:35:40;;;;;;;11.37;8.30;;;;;;;;;;5030264;28;20431;-68
2022/07/24 01:38:06;;;;;;;7.23;6.70;;;;;;;;;;5030446;28;20424;-69
2022/07/24 01:40:33;;;;;;;8.50;7.30;;;;;;;;;;5029756;28;20435;-69
2022/07/24 01:42:59;;;;;;;7.50;6.90;;;;;;;;;;5030162;28;20192;-68
2022/07/24 01:45:25;;;;;;;9.13;8.27;;;;;;;;;;5030786;28;20807;-68
2022/07/24 01:47:51;;;;;;;7.20;6.80;;;;;;;;;;5029398;28;20779;-68
2022/07/24 01:50:17;;;;;;;7.43;6.93;;;;;;;;;;5030133;28;21001;-68
2022/07/24 01:52:43;;;;;;;8.70;7.90;;;;;;;;;;5029593;28;20519;-68
2022/07/24 01:55:09;;;;;;;7.73;7.27;;;;;;;;;;5029035;28;20447;-68
2022/07/24 01:57:35;;;;;;;7.60;7.10;;;;;;;;;;5029821;28;20931;-68
2022/07/24 02:00:02;;;;;;;8.10;7.40;;;;;;;;;;5029184;28;20529;-69
2022/07/24 02:02:28;;;;;;;8.00;7.50;;;;;;;;;;5029457;28;20462;-68
2022/07/24 02:04:54;;;;;;;12.50;8.10;;;;;;;;;;5030078;28;20474;-68
2022/07/24 02:07:20;;;;;;;7.00;6.63;;;;;;;;;;5029203;28;20954;-68
2022/07/24 02:09:46;;;;;;;8.20;7.50;;;;;;;;;;5029618;28;20494;-68
2022/07/24 02:12:12;;;;;;;8.27;7.80;;;;;;;;;;5027710;28;20531;-68
2022/07/24 02:14:38;;;;;;;7.70;7.00;;;;;;;;;;5030255;28;20862;-68
2022/07/24 02:17:04;;;;;;;8.50;7.70;;;;;;;;;;5030202;28;20353;-68
2022/07/24 02:19:30;;;;;;;8.67;7.97;;;;;;;;;;5029605;28;20231;-68
2022/07/24 02:21:56;;;;;;;8.30;7.90;;;;;;;;;;5029281;28;20741;-68
2022/07/24 02:24:23;;;;;;;8.07;7.37;;;;;;;;;;5029851;28;20435;-68
2022/07/24 02:26:49;;;;;;;6.80;6.40;;;;;;;;;;5029920;28;20427;-69
2022/07/24 02:29:15;;;;;;;7.80;6.73;;;;;;;;;;5028407;28;20486;-69
2022/07/24 02:31:41;;;;;;;8.00;7.30;;;;;;;;;;5029576;28;20499;-69
2022/07/24 02:34:07;;;;;;;8.20;7.50;;;;;;;;;;5028802;28;20423;-68
2022/07/24 02:36:33;;;;;;;9.43;7.53;;;;;;;;;;5029532;28;20446;-68
2022/07/24 02:38:59;;;;;;;9.23;6.93;;;;;;;;;;5029509;28;20435;-69
2022/07/24 02:41:25;;;;;;;7.57;7.07;;;;;;;;;;5028755;28;20443;-68
2022/07/24 02:43:51;;;;;;;6.77;6.37;;;;;;;;;;5029918;28;20223;-69
2022/07/24 02:46:17;;;;;;;8.33;7.73;;;;;;;;;;5029679;28;20434;-69
2022/07/24 02:48:43;;;;;;;7.20;6.80;;;;;;;;;;5029393;28;20220;-69
2022/07/24 02:51:10;;;;;;;8.00;7.33;;;;;;;;;;5028076;28;21473;-68
2022/07/24 02:53:36;;;;;;;7.37;6.87;;;;;;;;;;5029655;28;20550;-69
2022/07/24 02:56:02;;;;;;;7.73;7.07;;;;;;;;;;5029136;28;20544;-69
2022/07/24 02:58:28;;;;;;;7.47;6.77;;;;;;;;;;5028998;28;20427;-69
2022/07/24 03:00:54;;;;;;;7.33;6.83;;;;;;;;;;5028738;28;20250;-69
2022/07/24 03:03:20;;;;;;;8.90;8.10;;;;;;;;;;5029272;28;20415;-69
2022/07/24 03:05:46;;;;;;;6.53;6.23;;;;;;;;;;5028087;28;20497;-69
2022/07/24 03:08:12;;;;;;;7.93;7.30;;;;;;;;;;5028925;28;20243;-69
2022/07/24 03:10:38;;;;;;;7.83;7.13;;;;;;;;;;5028886;28;20542;-69
2022/07/24 03:13:05;;;;;;;8.33;7.60;;;;;;;;;;5028832;28;20509;-69
2022/07/24 03:15:31;;;;;;;7.40;7.10;;;;;;;;;;5029116;28;20449;-69
2022/07/24 03:17:57;;;;;;;6.87;6.30;;;;;;;;;;5029084;28;20462;-68
2022/07/24 03:20:24;;;;;;;7.60;7.20;;;;;;;;;;5028794;28;20844;-68
2022/07/24 03:22:51;;;;;;;7.23;6.73;;;;;;;;;;5028458;28;20454;-69
2022/07/24 03:25:17;;;;;;;9.93;7.00;;;;;;;;;;5032328;28;20478;-69
2022/07/24 03:27:43;;;;;;;7.90;7.43;;;;;;;;;;5032880;28;20453;-69
2022/07/24 03:30:09;;;;;;;7.13;6.70;;;;;;;;;;5031438;28;20483;-69
2022/07/24 03:32:35;;;;;;;10.83;7.13;;;;;;;;;;5032281;28;20431;-69
2022/07/24 03:35:01;;;;;;;7.27;6.70;;;;;;;;;;5032862;28;20488;-69
2022/07/24 03:37:27;;;;;;;8.17;7.67;;;;;;;;;;5032896;28;20433;-68
2022/07/24 03:39:55;;;;;;;7.60;7.10;;;;;;;;;;5032965;28;20424;-68
2022/07/24 03:42:21;;;;;;;7.50;7.10;;;;;;;;;;5032188;28;20911;-69
2022/07/24 03:44:46;;;;;;;8.47;7.80;;;;;;;;;;5032622;28;20434;-69
2022/07/24 03:47:12;;;;;;;7.73;7.23;;;;;;;;;;5031469;28;20431;-69
2022/07/24 03:49:38;;;;;;;7.10;6.80;;;;;;;;;;5032708;28;20220;-69
2022/07/24 03:52:05;;;;;;;8.00;7.30;;;;;;;;;;5031858;28;20526;-69
2022/07/24 03:54:31;;;;;;;8.70;7.70;;;;;;;;;;5031902;28;21021;-69
2022/07/24 03:56:57;;;;;;;8.07;7.50;;;;;;;;;;5031942;28;20439;-69
2022/07/24 03:59:23;;;;;;;7.17;6.77;;;;;;;;;;5032048;28;20288;-69
2022/07/24 04:01:50;;;;;;;7.30;6.87;;;;;;;;;;5031942;28;20327;-69
2022/07/24 04:04:16;;;;;;;21.23;8.13;;;;;;;;;;5031011;28;21019;-69
2022/07/24 04:06:42;;;;;;;7.53;7.00;;;;;;;;;;5031472;28;20431;-69
2022/07/24 04:09:08;;;;;;;8.47;7.80;;;;;;;;;;5032056;28;20213;-69
2022/07/24 04:11:34;;;;;;;6.27;5.97;;;;;;;;;;5032099;28;20425;-68
2022/07/24 04:14:00;;;;;;;16.13;7.13;;;;;;;;;;5031814;28;20859;-69
2022/07/24 04:16:26;;;;;;;8.07;7.53;;;;;;;;;;5032040;28;20531;-69
2022/07/24 04:18:52;;;;;;;8.10;7.30;;;;;;;;;;5031482;28;20573;-69
2022/07/24 04:21:18;;;;;;;9.87;7.03;;;;;;;;;;5029516;28;20419;-69
2022/07/24 04:23:44;;;;;;;8.00;7.40;;;;;;;;;;5032321;28;20946;-69
2022/07/24 04:26:10;;;;;;;7.50;6.90;;;;;;;;;;5032148;28;20415;-69
2022/07/24 04:28:36;;;;;;;8.00;7.60;;;;;;;;;;5030792;28;20491;-69
2022/07/24 04:31:02;;;;;;;7.73;7.30;;;;;;;;;;5030099;28;20441;-69
2022/07/24 04:33:28;;;;;;;7.37;6.87;;;;;;;;;;5031904;28;20467;-69
2022/07/24 04:35:54;;;;;;;7.13;6.53;;;;;;;;;;5031209;28;20458;-68
2022/07/24 04:38:20;;;;;;;7.50;7.00;;;;;;;;;;5030654;28;20469;-69
2022/07/24 04:40:46;;;;;;;8.50;7.73;;;;;;;;;;5030833;28;20691;-69
2022/07/24 04:43:12;;;;;;;8.20;7.30;;;;;;;;;;5030990;28;20943;-69
2022/07/24 04:45:38;;;;;;;7.60;7.03;;;;;;;;;;5032070;28;20419;-69
2022/07/24 04:48:04;;;;;;;7.37;6.87;;;;;;;;;;5031496;28;20506;-69
2022/07/24 04:50:31;;;;;;;8.20;7.60;;;;;;;;;;5030505;28;20499;-69
2022/07/24 04:52:57;;;;;;;6.90;6.40;;;;;;;;;;5030775;28;20471;-69
2022/07/24 04:55:23;;;;;;;7.57;7.07;;;;;;;;;;5031226;28;20438;-69
2022/07/24 04:57:48;;;;;;;7.63;7.07;;;;;;;;;;5031362;28;20439;-69
2022/07/24 05:00:15;;;;;;;8.00;7.50;;;;;;;;;;5028809;28;20469;-69
2022/07/24 05:02:41;;;;;;;7.80;7.10;;;;;;;;;;5030635;28;20457;-68
2022/07/24 05:05:07;;;;;;;6.53;6.13;;;;;;;;;;5029187;28;20467;-69
2022/07/24 05:07:33;;;;;;;7.40;6.90;;;;;;;;;;5031239;28;20438;-69
2022/07/24 05:10:00;;;;;;;7.20;6.90;;;;;;;;;;5030004;28;20490;-69
2022/07/24 05:12:26;;;;;;;11.63;8.10;;;;;;;;;;5030625;28;20440;-68
2022/07/24 05:14:53;;;;;;;7.67;6.80;;;;;;;;;;5031177;28;20446;-69
2022/07/24 05:17:19;;;;;;;6.90;6.50;;;;;;;;;;5031594;28;20454;-69
2022/07/24 05:19:45;;;;;;;6.37;6.17;;;;;;;;;;5030287;28;20931;-68
2022/07/24 05:22:11;;;;;;;7.70;7.03;;;;;;;;;;5029911;28;20430;-68
2022/07/24 05:24:37;;;;;;;7.83;7.13;;;;;;;;;;5030681;28;20431;-68
2022/07/24 05:27:03;;;;;;;7.00;6.40;;;;;;;;;;5030199;28;20427;-69
2022/07/24 05:29:29;;;;;;;7.93;7.33;;;;;;;;;;5023754;28;20550;-68
2022/07/24 05:31:55;;;;;;;7.30;6.30;;;;;;;;;;5029337;28;20935;-68
2022/07/24 05:34:21;;;;;;;7.47;6.97;;;;;;;;;;5030043;28;20584;-69
2022/07/24 05:36:47;;;;;;;7.60;7.10;;;;;;;;;;5029560;28;20431;-69
2022/07/24 05:39:13;;;;;;;6.60;6.20;;;;;;;;;;5030095;28;20435;-69
2022/07/24 05:41:39;;;;;;;6.87;5.97;;;;;;;;;;5028242;28;20432;-68
2022/07/24 05:44:05;;;;;;;7.37;6.80;;;;;;;;;;5029036;28;20908;-68
2022/07/24 05:46:31;;;;;;;6.40;6.00;;;;;;;;;;5028114;28;20442;-68
2022/07/24 05:48:57;;;;;;;6.87;6.57;;;;;;;;;;5029086;28;20573;-69
2022/07/24 05:51:23;;;;;;;8.23;7.60;;;;;;;;;;5028814;28;20571;-69
2022/07/24 05:53:49;;;;;;;6.67;6.37;;;;;;;;;;5029275;28;20592;-69
2022/07/24 05:56:15;;;;;;;6.50;6.07;;;;;;;;;;5028834;28;20467;-69
2022/07/24 05:58:41;;;;;;;7.60;7.00;;;;;;;;;;5029718;28;20435;-69
2022/07/24 06:01:07;;;;;;;6.67;6.37;;;;;;;;;;5028898;28;20188;-69
2022/07/24 06:03:33;;;;;;;7.37;6.63;;;;;;;;;;5029659;28;20279;-68
2022/07/24 06:05:59;;;;;;;6.73;6.47;;;;;;;;;;5028298;28;20432;-68
2022/07/24 06:08:25;;;;;;;10.00;6.43;;;;;;;;;;5029476;28;20485;-68
2022/07/24 06:10:51;;;;;;;7.47;6.73;;;;;;;;;;5029218;28;20442;-69
2022/07/24 06:13:17;;;;;;;6.73;6.40;;;;;;;;;;5028343;28;20478;-68
2022/07/24 06:15:43;;;;;;;6.97;5.83;;;;;;;;;;5029257;28;20458;-68
2022/07/24 06:18:09;;;;;;;6.90;6.40;;;;;;;;;;5028865;28;20424;-69
2022/07/24 06:20:35;;;;;;;8.50;6.40;;;;;;;;;;5028613;28;21007;-69
2022/07/24 06:23:01;;;;;;;5.60;5.40;;;;;;;;;;5029232;28;20427;-68
2022/07/24 06:25:27;;;;;;;6.20;5.90;;;;;;;;;;5028922;28;20188;-68
2022/07/24 06:27:57;;;;;;;7.97;6.20;;;;;;;;;;5029556;28;20194;-68
2022/07/24 06:30:24;;;;;;;7.37;6.77;;;;;;;;;;5028876;28;20490;-68
2022/07/24 06:32:52;;;;;;;6.73;6.33;;;;;;;;;;5029620;28;20497;-68
2022/07/24 06:35:18;;;;;;;6.60;6.30;;;;;;;;;;5027452;28;20974;-69
2022/07/24 06:37:44;;;;;;;6.60;6.10;;;;;;;;;;5027990;28;20514;-69
2022/07/24 06:40:10;;;;;;;7.20;6.90;;;;;;;;;;5027580;28;20471;-69
2022/07/24 06:42:36;;;;;;;7.00;6.33;;;;;;;;;;5029176;28;20518;-68
2022/07/24 06:45:03;;;;;;;6.90;6.47;;;;;;;;;;5028298;28;20535;-69
2022/07/24 06:47:29;;;;;;;6.40;6.00;;;;;;;;;;5027820;28;20446;-68
2022/07/24 06:49:58;;;;;;;6.90;6.60;;;;;;;;;;5028492;28;20847;-69
2022/07/24 06:52:24;;;;;;;7.77;7.00;;;;;;;;;;5028827;28;20664;-69
2022/07/24 06:54:50;;;;;;;8.40;7.70;;;;;;;;;;5026268;28;20479;-69
2022/07/24 06:57:17;;;;;;;7.60;7.00;;;;;;;;;;5027538;28;20518;-68
2022/07/24 06:59:43;;;;;;;7.40;6.70;;;;;;;;;;5027267;28;20245;-68
2022/07/24 07:02:09;;;;;;;6.30;6.10;;;;;;;;;;5028498;28;20431;-69
2022/07/24 07:04:35;;;;;;;6.93;6.53;;;;;;;;;;5027497;28;20216;-68
2022/07/24 07:07:02;;;;;;;6.67;5.87;;;;;;;;;;5027730;28;20192;-69
2022/07/24 07:09:28;;;;;;;6.60;6.20;;;;;;;;;;5027292;28;20490;-69
2022/07/24 07:11:54;;;;;;;7.40;7.00;;;;;;;;;;5027581;28;20411;-69
2022/07/24 07:14:20;;;;;;;11.20;6.30;;;;;;;;;;5028786;28;20435;-68
2022/07/24 07:16:46;;;;;;;6.93;6.53;;;;;;;;;;5028263;28;20784;-69
2022/07/24 07:19:12;;;;;;;7.00;6.50;;;;;;;;;;5027050;28;20450;-68
2022/07/24 07:21:38;;;;;;;7.80;7.00;;;;;;;;;;5028031;28;20924;-68
2022/07/24 07:24:05;;;;;;;8.20;6.97;;;;;;;;;;5028985;28;20769;-69
2022/07/24 07:26:31;;;;;;;7.53;6.10;;;;;;;;;;5028253;28;20466;-69
2022/07/24 07:28:57;;;;;;;6.83;6.43;;;;;;;;;;5027776;28;20560;-69
2022/07/24 07:31:24;;;;;;;6.73;6.43;;;;;;;;;;5027980;28;20939;-69
2022/07/24 07:33:50;;;;;;;7.17;6.70;;;;;;;;;;5028941;28;20193;-69
2022/07/24 07:36:16;;;;;;;6.90;6.60;;;;;;;;;;5027482;28;20439;-69
2022/07/24 07:38:42;;;;;;;5.97;5.67;;;;;;;;;;5027997;28;20442;-69
2022/07/24 07:41:08;;;;;;;7.90;6.03;;;;;;;;;;5027646;28;20443;-69
2022/07/24 07:43:34;;;;;;;5.90;5.70;;;;;;;;;;5024980;28;20442;-69
2022/07/24 07:46:00;;;;;;;11.93;6.60;;;;;;;;;;5028211;28;20462;-69
2022/07/24 07:48:26;;;;;;;6.30;5.90;;;;;;;;;;5028043;28;20469;-69
2022/07/24 07:50:52;;;;;;;8.13;6.73;;;;;;;;;;5027300;28;20189;-71
2022/07/24 07:53:18;;;;;;;7.43;7.03;;;;;;;;;;5027794;28;20490;-75
2022/07/24 07:55:48;;;;;;;6.50;6.10;;;;;;;;;;5028500;28;20435;-77
2022/07/24 07:58:15;;;;;;;6.57;6.27;;;;;;;;;;5027766;28;20431;-76
2022/07/24 08:00:41;;;;;;;6.93;6.40;;;;;;;;;;5027663;28;20431;-75
2022/07/24 08:03:07;;;;;;;6.27;5.70;;;;;;;;;;5027884;28;20430;-84
2022/07/24 08:05:33;;;;;;;5.23;5.03;;;;;;;;;;5026440;28;20796;-74
2022/07/24 08:07:59;;;;;;;7.33;6.63;;;;;;;;;;5028065;28;20603;-75
2022/07/24 08:10:25;;;;;;;5.70;5.50;;;;;;;;;;5027925;28;20529;-75
2022/07/24 08:12:51;;;;;;;5.30;5.00;;;;;;;;;;5031113;28;20444;-74
2022/07/24 08:15:17;;;;;;;6.00;5.73;;;;;;;;;;5032051;28;20530;-74
2022/07/24 08:17:43;;;;;;;5.57;5.30;;;;;;;;;;5031458;28;20215;-76
2022/07/24 08:20:09;;;;;;;6.33;5.73;;;;;;;;;;5029977;28;20434;-74
2022/07/24 08:22:35;;;;;;;6.67;6.37;;;;;;;;;;5030627;28;20430;-74
2022/07/24 08:25:01;;;;;;;7.27;6.57;;;;;;;;;;5031563;28;20801;-74
2022/07/24 08:27:27;;;;;;;6.73;6.23;;;;;;;;;;5031539;28;20203;-74
2022/07/24 08:29:54;;;;;;;5.03;4.73;;;;;;;;;;5030519;28;20580;-75
2022/07/24 08:32:20;;;;;;;6.97;6.57;;;;;;;;;;5030487;28;21246;-74
2022/07/24 08:34:46;;;;;;;5.30;5.10;;;;;;;;;;5031961;28;20518;-74
2022/07/24 08:37:12;;;;;;;6.50;5.90;;;;;;;;;;5030714;28;20518;-75
2022/07/24 08:39:38;;;;;;;5.47;5.20;;;;;;;;;;5030607;28;20465;-74
2022/07/24 08:42:04;;;;;;;5.67;5.30;;;;;;;;;;5030823;28;20462;-75
2022/07/24 08:44:30;;;;;;;8.80;5.57;;;;;;;;;;5031139;28;20453;-74
2022/07/24 08:46:57;;;;;;;6.77;6.27;;;;;;;;;;5030074;28;20450;-75
2022/07/24 08:49:24;;;;;;;7.03;5.10;;;;;;;;;;5030764;28;20581;-74
2022/07/24 08:51:50;;;;;;;6.53;5.23;;;;;;;;;;5029675;28;20993;-73
2022/07/24 08:54:16;;;;;;;6.57;5.67;;;;;;;;;;5030859;28;20487;-75
2022/07/24 08:56:42;;;;;;;5.27;4.80;;;;;;;;;;5031134;28;20423;-74
2022/07/24 08:59:16;;;;;;;5.47;5.27;;;;;;;;;;5030712;28;20435;-75
2022/07/24 09:01:42;;;;;;;6.47;6.07;;;;;;;;;;5029725;28;20478;-75
2022/07/24 09:04:28;;;;;;;6.70;6.20;;;;;;;;;;5029955;28;20950;-73
2022/07/24 09:06:57;;;;;;;6.07;5.47;;;;;;;;;;5030808;28;20430;-75
2022/07/24 09:09:23;;;;;;;5.83;5.53;;;;;;;;;;5028900;28;20487;-74
2022/07/24 09:11:49;;;;;;;5.10;4.73;;;;;;;;;;5030795;28;20434;-73
2022/07/24 09:14:30;;;;;;;10.40;4.93;;;;;;;;;;5013197;28;20805;-73
2022/07/24 09:17:05;;;;;;;6.30;5.80;;;;;;;;;;5030407;28;20450;-73
2022/07/24 09:19:31;;;;;;;4.63;4.37;;;;;;;;;;5030373;28;20951;-74
2022/07/24 09:21:57;;;;;;;6.17;5.77;;;;;;;;;;5029207;28;20484;-73
2022/07/24 09:24:23;;;;;;;5.93;5.57;;;;;;;;;;5030011;28;20427;-75
2022/07/24 09:26:51;;;;;;;5.23;5.03;;;;;;;;;;5031053;28;20458;-74
2022/07/24 09:29:17;;;;;;;5.77;5.27;;;;;;;;;;5030105;28;20739;-74
2022/07/24 09:31:50;;;;;;;4.97;4.77;;;;;;;;;;5029709;28;20534;-74
2022/07/24 09:34:16;;;;;;;5.50;5.30;;;;;;;;;;5028986;28;20756;-74
2022/07/24 09:36:42;;;;;;;5.50;4.83;;;;;;;;;;5025796;28;20798;-74
2022/07/24 09:39:08;;;;;;;4.50;4.40;;;;;;;;;;5027745;28;20446;-74
2022/07/24 09:41:50;;;;;;;5.53;5.23;;;;;;;;;;5029894;28;20522;-73
2022/07/24 09:44:16;;;;;;;5.07;4.80;;;;;;;;;;5029581;28;20514;-77
2022/07/24 09:46:46;;;;;;;5.40;5.10;;;;;;;;;;5031083;28;20484;-74
2022/07/24 09:49:19;;;;;;;4.80;4.60;;;;;;;;;;5029708;28;20482;-74
2022/07/24 09:51:45;;;;;;;5.33;5.00;;;;;;;;;;5033809;28;20439;-74
2022/07/24 09:54:11;;;;;;;6.00;4.70;;;;;;;;;;5018270;28;20861;-74
2022/07/24 09:56:38;;;;;;;5.00;4.80;;;;;;;;;;5028686;28;21095;-74
2022/07/24 09:59:07;;;;;;;4.50;4.40;;;;;;;;;;5028216;28;20498;-74
2022/07/24 10:01:34;;;;;;;5.13;4.73;;;;;;;;;;5029048;28;20423;-74
2022/07/24 10:04:01;;;;;;;5.50;5.30;;;;;;;;;;5030064;28;20450;-74
2022/07/24 10:06:27;;;;;;;5.07;4.87;;;;;;;;;;5028787;28;20435;-74
2022/07/24 10:08:53;;;;;;;5.17;4.97;;;;;;;;;;5028638;28;20473;-74
2022/07/24 10:11:19;;;;;;;5.60;5.27;;;;;;;;;;5029550;28;20519;-74
2022/07/24 10:13:46;;;;;;;6.30;5.87;;;;;;;;;;5028834;28;20517;-77
2022/07/24 10:16:14;;;;;;;4.67;4.43;;;;;;;;;;5029525;28;20431;-73
2022/07/24 10:18:54;;;;;;;5.97;5.60;;;;;;;;;;5028208;28;20459;-74
2022/07/24 10:21:27;;;;;;;5.60;5.40;;;;;;;;;;5029353;28;20419;-74
2022/07/24 10:24:05;;;;;;;7.93;7.33;;;;;;;;;;5029616;28;20514;-75
2022/07/24 10:26:31;;;;;;;5.20;4.90;;;;;;;;;;5029820;28;20419;-72
2022/07/24 10:29:06;;;;;;;5.73;5.47;;;;;;;;;;5029002;28;20445;-72
2022/07/24 10:31:32;;;;;;;5.27;5.07;;;;;;;;;;5029516;28;20318;-72
2022/07/24 10:34:01;;;;;;;5.93;5.53;;;;;;;;;;5028906;28;20439;-72
2022/07/24 10:36:31;;;;;;;5.80;5.50;;;;;;;;;;5028575;28;20950;-72
2022/07/24 10:39:01;;;;;;;5.40;5.10;;;;;;;;;;5029142;28;20490;-72
2022/07/24 10:41:27;;;;;;;5.40;5.00;;;;;;;;;;5027474;28;20443;-72
2022/07/24 10:44:32;;;;;;;6.00;5.60;;;;;;;;;;5026798;28;20978;-71
2022/07/24 10:46:59;;;;;;;5.60;5.20;;;;;;;;;;5027079;28;20951;-72
2022/07/24 10:49:39;;;;;;;4.80;4.50;;;;;;;;;;5025925;28;20521;-72
2022/07/24 10:52:05;;;;;;;6.20;5.60;;;;;;;;;;5018831;28;20439;-72
2022/07/24 10:54:31;;;;;;;8.70;5.90;;;;;;;;;;5027405;28;20525;-72
2022/07/24 10:56:57;;;;;;;6.83;5.40;;;;;;;;;;5029380;28;20443;-72
2022/07/24 10:59:34;;;;;;;4.87;4.63;;;;;;;;;;5028379;28;20418;-73
2022/07/24 11:02:20;;;;;;;5.80;5.40;;;;;;;;;;5029141;28;20501;-72
2022/07/24 11:04:45;;;;;;;5.83;5.43;;;;;;;;;;5028357;28;20446;-71
2022/07/24 11:07:12;;;;;;;8.10;5.00;;;;;;;;;;5029404;28;20423;-72
2022/07/24 11:09:56;;;;;;;4.53;4.43;;;;;;;;;;5027159;28;20877;-73
2022/07/24 11:12:29;;;;;;;5.80;5.50;;;;;;;;;;5028349;28;20435;-77
2022/07/24 11:15:54;;;;;;;5.20;5.10;;;;;;;;;;5028856;28;20455;-75
2022/07/24 11:17:47;;;;;;;5.33;4.93;;;;;;;;;;5027146;28;20793;-74
2022/07/24 11:20:14;;;;;;;5.87;5.10;;;;;;;;;;5026484;28;20470;-74
2022/07/24 11:22:47;;;;;;;5.50;5.20;;;;;;;;;;5026555;28;20431;-82
2022/07/24 11:25:14;;;;;;;5.33;5.13;;;;;;;;;;5027787;28;20466;-80
2022/07/24 11:27:47;;;;;;;5.80;5.40;;;;;;;;;;5028017;28;20427;-82
2022/07/24 11:30:14;;;;;;;6.97;5.90;;;;;;;;;;5027900;28;20541;-82
2022/07/24 11:32:41;;;;;;;5.67;5.37;;;;;;;;;;5028403;28;20427;-74
2022/07/24 11:35:08;;;;;;;6.47;6.00;;;;;;;;;;5028145;28;20444;-81
2022/07/24 11:37:35;;;;;;;5.10;4.90;;;;;;;;;;5029471;28;20804;-82
2022/07/24 11:40:01;;;;;;;5.77;5.40;;;;;;;;;;5028205;28;20434;-81
2022/07/24 11:42:27;;;;;;;5.63;5.13;;;;;;;;;;5026949;28;21073;-81
2022/07/24 11:44:53;;;;;;;4.90;4.70;;;;;;;;;;5029702;28;20446;-79
2022/07/24 11:47:20;;;;;;;7.77;5.80;;;;;;;;;;5031735;28;20185;-74
2022/07/24 11:49:52;;;;;;;5.20;4.77;;;;;;;;;;5032078;28;20486;-77
2022/07/24 11:52:19;;;;;;;5.73;4.87;;;;;;;;;;5031396;28;20966;-74
2022/07/24 11:54:46;;;;;;;5.57;5.17;;;;;;;;;;5030214;28;20486;-73
2022/07/24 11:57:19;;;;;;;5.87;4.20;;;;;;;;;;5030455;28;20955;-77
2022/07/24 11:59:46;;;;;;;5.17;4.97;;;;;;;;;;5032270;28;20935;-80
2022/07/24 12:02:12;;;;;;;5.10;4.87;;;;;;;;;;5032656;28;20430;-80
2022/07/24 12:04:39;;;;;;;5.83;5.30;;;;;;;;;;5031538;28;20443;-78
2022/07/24 12:07:07;;;;;;;5.93;5.30;;;;;;;;;;5031838;28;20422;-74
2022/07/24 12:09:33;;;;;;;13.07;5.10;;;;;;;;;;5031524;28;20486;-74
2022/07/24 12:11:59;;;;;;;5.17;4.70;;;;;;;;;;5032036;28;20423;-78
2022/07/24 12:14:25;;;;;;;6.50;5.40;;;;;;;;;;5031668;28;20448;-79
2022/07/24 12:16:52;;;;;;;6.17;5.73;;;;;;;;;;5032264;28;20419;-77
2022/07/24 12:19:19;;;;;;;5.93;4.83;;;;;;;;;;5028141;28;20441;-76
2022/07/24 12:21:46;;;;;;;4.00;3.90;;;;;;;;;;5030693;28;20470;-78
2022/07/24 12:24:12;;;;;;;5.90;5.03;;;;;;;;;;5030290;28;20851;-76
2022/07/24 12:26:49;;;;;;;12.50;5.33;;;;;;;;;;5031511;28;20439;-74
2022/07/24 12:29:15;;;;;;;5.50;5.20;;;;;;;;;;5031014;28;21021;-74
2022/07/24 12:31:41;;;;;;;5.20;5.00;;;;;;;;;;5031182;28;20419;-77
2022/07/24 12:34:07;;;;;;;4.57;4.30;;;;;;;;;;5031181;28;20446;-77
2022/07/24 12:36:33;;;;;;;4.73;4.53;;;;;;;;;;5029349;28;20538;-75
2022/07/24 12:38:59;;;;;;;5.30;4.97;;;;;;;;;;5030012;28;20435;-78
2022/07/24 12:41:27;;;;;;;5.00;4.87;;;;;;;;;;5031354;28;20454;-75
2022/07/24 12:43:57;;;;;;;4.37;4.27;;;;;;;;;;5030701;28;20439;-77
2022/07/24 12:46:26;;;;;;;5.37;4.97;;;;;;;;;;5031584;28;20442;-75
2022/07/24 12:48:58;;;;;;;5.50;5.10;;;;;;;;;;5031147;28;20474;-74
2022/07/24 12:51:24;;;;;;;5.37;5.17;;;;;;;;;;5031483;28;20424;-76
2022/07/24 12:53:53;;;;;;;5.33;5.03;;;;;;;;;;5030909;28;20499;-76
2022/07/24 12:56:19;;;;;;;5.23;4.87;;;;;;;;;;5030773;28;20435;-80
2022/07/24 12:58:56;;;;;;;4.93;4.73;;;;;;;;;;5029955;28;20516;-77
2022/07/24 13:01:23;;;;;;;4.87;4.53;;;;;;;;;;5028973;28;20828;-74
2022/07/24 13:04:09;;;;;;;4.63;4.53;;;;;;;;;;5030109;28;20477;-80
2022/07/24 13:06:42;;;;;;;5.63;5.20;;;;;;;;;;5029943;28;20434;-80
2022/07/24 13:09:09;;;;;;;5.17;4.97;;;;;;;;;;5030010;28;20908;-77
2022/07/24 13:11:38;;;;;;;5.70;5.03;;;;;;;;;;5030652;28;20924;-76
2022/07/24 13:14:06;;;;;;;14.00;5.90;;;;;;;;;;5030148;28;20510;-74
2022/07/24 13:16:32;;;;;;;5.03;4.80;;;;;;;;;;5030866;28;20447;-76
2022/07/24 13:18:59;;;;;;;5.97;5.17;;;;;;;;;;5030632;28;20436;-77
2022/07/24 13:21:25;;;;;;;5.30;4.90;;;;;;;;;;5030226;28;20532;-74
2022/07/24 13:23:51;;;;;;;4.67;4.33;;;;;;;;;;5029312;28;20446;-74
2022/07/24 13:26:17;;;;;;;4.23;4.13;;;;;;;;;;5030177;28;20439;-77
2022/07/24 13:28:43;;;;;;;4.37;4.23;;;;;;;;;;5030723;28;20886;-74
2022/07/24 13:31:09;;;;;;;5.20;4.93;;;;;;;;;;5030568;28;20447;-77
2022/07/24 13:33:35;;;;;;;5.70;5.00;;;;;;;;;;5028758;28;20454;-80
2022/07/24 13:36:01;;;;;;;4.00;3.80;;;;;;;;;;5027744;28;20469;-79
2022/07/24 13:38:27;;;;;;;4.77;4.57;;;;;;;;;;5030077;28;20481;-78
2022/07/24 13:40:53;;;;;;;7.67;4.80;;;;;;;;;;5029986;28;20923;-78
2022/07/24 13:43:19;;;;;;;5.00;4.80;;;;;;;;;;5029795;28;20435;-77
2022/07/24 13:45:45;;;;;;;4.77;4.63;;;;;;;;;;5030613;28;20188;-79
2022/07/24 13:48:11;;;;;;;4.70;4.40;;;;;;;;;;5029623;28;20426;-79
2022/07/24 13:50:37;;;;;;;4.73;4.10;;;;;;;;;;5028974;28;20542;-79
2022/07/24 13:53:03;;;;;;;9.63;4.90;;;;;;;;;;5029703;28;21104;-79
2022/07/24 13:55:31;;;;;;;4.73;4.37;;;;;;;;;;5029465;28;20833;-78
2022/07/24 13:57:57;;;;;;;5.93;5.43;;;;;;;;;;5028314;28;20473;-79
2022/07/24 14:00:24;;;;;;;4.27;4.07;;;;;;;;;;5029883;28;20440;-79
2022/07/24 14:02:54;;;;;;;4.33;4.13;;;;;;;;;;5028906;28;20185;-79
2022/07/24 14:05:20;;;;;;;5.67;5.37;;;;;;;;;;5029498;28;20747;-78
2022/07/24 14:07:46;;;;;;;5.60;5.40;;;;;;;;;;5028313;28;20489;-79
2022/07/24 14:10:12;;;;;;;4.97;4.73;;;;;;;;;;5029496;28;20303;-79
2022/07/24 14:12:38;;;;;;;4.97;4.57;;;;;;;;;;5028867;28;20511;-76
2022/07/24 14:15:05;;;;;;;5.30;5.00;;;;;;;;;;5029901;28;20200;-77
2022/07/24 14:17:31;;;;;;;4.87;4.67;;;;;;;;;;5029119;28;20759;-77
2022/07/24 14:19:57;;;;;;;4.87;4.67;;;;;;;;;;5029589;28;20943;-77
2022/07/24 14:22:23;;;;;;;3.97;3.77;;;;;;;;;;5029045;28;20463;-69
2022/07/24 14:24:49;;;;;;;4.93;4.80;;;;;;;;;;5030041;28;20466;-77
2022/07/24 14:27:15;;;;;;;5.63;5.13;;;;;;;;;;5029425;28;20184;-76
2022/07/24 14:29:41;;;;;;;4.97;4.67;;;;;;;;;;5029351;28;20239;-77
2022/07/24 14:32:07;;;;;;;4.27;4.17;;;;;;;;;;5028763;28;20435;-76
2022/07/24 14:34:33;;;;;;;4.97;4.87;;;;;;;;;;5028483;28;20189;-74
2022/07/24 14:36:59;;;;;;;6.20;5.20;;;;;;;;;;5026978;28;20470;-76
2022/07/24 14:39:25;;;;;;;4.17;3.87;;;;;;;;;;5028729;28;20180;-78
2022/07/24 14:41:51;;;;;;;5.30;5.10;;;;;;;;;;5017646;28;20473;-75